Terminal Aerodrome Forecast
Issued by NWS Sterling, VA

Current Version | Previous Version | Text Only | Print | Product List | Glossary Off
Versions: 1 2 3 4 5 6 7 8 9 10 11 12 13 14 15 16 17 18 19 20 21 22 23

631
FTUS41 KLWX 042100 AAA
TAFDCA
TAF AMD
KDCA 042100Z 0421/0518 18006KT P6SM BKN150 OVC250
     FM050300 16005KT P6SM -RA BKN050 OVC070
     FM050600 16006KT P6SM -RA SCT008 OVC020
     FM050900 18006KT 6SM -RA OVC008
     FM051200 20005KT P6SM OVC008
     FM051500 25006KT P6SM SCT008 BKN130=

USA.gov is the U.S. government's official web portal to all federal, state and local government web resources and services.